Time;durP1;ratioP1;P1;durP2;ratioP2;P2;SDS_P1;SDS_P2;PMS_P1;PMS_P2;Temp;Humidity;BMP_temperature;BMP_pressure;BME280_temperature;BME280_humidity;BME280_pressure;Samples;Min_cycle;Max_cycle;Signal;HPM_P1;HPM_P2
2022/10/12 00:01:32;;;;;;;20.20;12.82;;;;;;;11.44;100.00;96473.19;5020000;28;24444;-75
2022/10/12 00:03:59;;;;;;;17.77;13.40;;;;;;;11.39;100.00;96469.09;5018024;28;24432;-77
2022/10/12 00:06:25;;;;;;;21.38;14.43;;;;;;;11.34;100.00;96473.66;5016750;28;24432;-77
2022/10/12 00:08:54;;;;;;;19.73;13.82;;;;;;;11.41;100.00;96468.16;5023213;28;24483;-77
2022/10/12 00:11:23;;;;;;;20.73;14.18;;;;;;;11.45;100.00;96470.50;5021541;28;24853;-77
2022/10/12 00:13:52;;;;;;;19.73;15.30;;;;;;;11.37;100.00;96468.31;5022442;28;24436;-77
2022/10/12 00:16:20;;;;;;;23.20;15.00;;;;;;;11.39;100.00;96466.50;5021091;28;24432;-77
2022/10/12 00:18:50;;;;;;;20.20;16.13;;;;;;;11.30;100.00;96473.91;5004947;28;24440;-77
2022/10/12 00:21:17;;;;;;;22.25;16.30;;;;;;;11.24;100.00;96475.09;5014905;28;24490;-77
2022/10/12 00:23:44;;;;;;;25.63;17.67;;;;;;;11.25;100.00;96470.75;5019290;28;24439;-75
2022/10/12 00:26:14;;;;;;;22.45;16.15;;;;;;;11.27;100.00;96471.50;5014753;28;24436;-76
2022/10/12 00:28:41;;;;;;;24.20;16.67;;;;;;;11.34;100.00;96471.06;5015322;28;24504;-75
2022/10/12 00:31:11;;;;;;;18.00;14.63;;;;;;;11.45;100.00;96469.66;5022327;28;24436;-76
2022/10/12 00:33:38;;;;;;;17.38;13.60;;;;;;;11.49;100.00;96472.00;5011324;28;24448;-78
2022/10/12 00:36:13;;;;;;;22.25;16.98;;;;;;;11.69;100.00;96478.69;5010578;28;24988;-75
2022/10/12 00:38:39;;;;;;;22.20;17.35;;;;;;;11.67;100.00;96474.50;5019162;28;25008;-75
2022/10/12 00:41:06;;;;;;;23.58;18.70;;;;;;;11.62;100.00;96473.00;5013766;28;24443;-75
2022/10/12 00:43:36;;;;;;;25.55;20.45;;;;;;;11.55;100.00;96470.81;5020661;28;24970;-77
2022/10/12 00:46:06;;;;;;;21.83;18.40;;;;;;;11.59;100.00;96470.56;5020386;28;24448;-77
2022/10/12 00:48:35;;;;;;;23.13;18.30;;;;;;;11.62;100.00;96467.81;5021392;28;25293;-77
2022/10/12 00:51:03;;;;;;;19.58;15.13;;;;;;;11.65;100.00;96472.00;5014584;28;24429;-78
2022/10/12 00:53:35;;;;;;;20.95;15.07;;;;;;;11.61;100.00;96465.31;5028133;28;25024;-78
2022/10/12 00:56:06;;;;;;;22.05;15.55;;;;;;;11.52;100.00;96468.41;5019928;28;24444;-78
2022/10/12 00:58:33;;;;;;;27.92;17.05;;;;;;;11.49;100.00;96465.97;5027970;28;24439;-76
2022/10/12 01:01:01;;;;;;;25.05;17.35;;;;;;;11.54;100.00;96467.41;5010365;28;24499;-75
2022/10/12 01:03:28;;;;;;;21.55;16.23;;;;;;;11.58;100.00;96468.91;5018429;28;24439;-75
2022/10/12 01:05:56;;;;;;;17.80;14.90;;;;;;;11.64;100.00;96462.50;5020571;28;24435;-75
2022/10/12 01:08:23;;;;;;;18.70;14.60;;;;;;;11.63;100.00;96477.25;5025132;28;24459;-79
2022/10/12 01:10:50;;;;;;;21.55;14.43;;;;;;;11.67;100.00;96477.09;5011054;28;24436;-75
2022/10/12 01:13:17;;;;;;;19.08;14.32;;;;;;;11.70;100.00;96475.16;5024043;28;24479;-76
2022/10/12 01:15:50;;;;;;;16.08;13.25;;;;;;;11.73;100.00;96479.34;5021705;28;24436;-79
2022/10/12 01:18:22;;;;;;;15.27;12.93;;;;;;;11.69;100.00;96475.25;5010508;28;24436;-75
2022/10/12 01:21:01;;;;;;;15.38;11.57;;;;;;;11.73;100.00;96482.78;5007369;28;24885;-75
2022/10/12 01:23:48;;;;;;;12.95;10.23;;;;;;;11.75;100.00;96478.31;5011286;28;24525;-75
2022/10/12 01:26:51;;;;;;;17.55;12.90;;;;;;;11.64;100.00;96470.31;5006700;28;24437;-75
2022/10/12 01:29:34;;;;;;;30.00;15.05;;;;;;;11.58;100.00;96473.25;5016950;28;24436;-81
2022/10/12 01:32:09;;;;;;;27.85;17.17;;;;;;;11.46;100.00;96467.00;5009741;28;24452;-76
2022/10/12 01:34:45;;;;;;;21.63;14.53;;;;;;;11.42;100.00;96460.31;5019877;28;24440;-78
2022/10/12 01:37:17;;;;;;;20.67;13.90;;;;;;;11.51;100.00;96464.97;5022367;28;24849;-75
2022/10/12 01:39:49;;;;;;;15.35;13.40;;;;;;;11.56;100.00;96467.31;5018014;28;24992;-77
2022/10/12 01:42:20;;;;;;;21.55;14.18;;;;;;;11.58;100.00;96463.72;5018350;28;24436;-75
2022/10/12 01:44:46;;;;;;;21.20;16.75;;;;;;;11.52;100.00;96458.84;5007924;28;24443;-76
2022/10/12 01:47:14;;;;;;;24.45;19.45;;;;;;;11.44;100.00;96463.63;5022038;28;24436;-77
2022/10/12 01:49:41;;;;;;;25.02;20.33;;;;;;;11.46;100.00;96447.97;5020465;28;24439;-77
2022/10/12 01:52:21;;;;;;;23.67;18.08;;;;;;;11.51;100.00;96464.97;5022627;28;24551;-76
2022/10/12 01:55:00;;;;;;;27.48;21.63;;;;;;;11.41;100.00;96460.38;5007352;28;24443;-76
2022/10/12 01:57:35;;;;;;;28.83;21.90;;;;;;;11.42;100.00;96459.44;5020588;28;24448;-76
2022/10/12 02:00:05;;;;;;;26.77;19.67;;;;;;;11.46;100.00;96459.22;5021258;28;24428;-76
2022/10/12 02:02:41;;;;;;;25.85;21.08;;;;;;;11.62;100.00;96464.38;5019214;28;24965;-76
2022/10/12 02:05:15;;;;;;;27.10;21.25;;;;;;;11.62;100.00;96456.59;5013789;28;24439;-76
2022/10/12 02:07:48;;;;;;;28.02;21.15;;;;;;;11.59;100.00;96459.34;5017315;28;25011;-76
2022/10/12 02:10:18;;;;;;;28.45;22.52;;;;;;;11.63;100.00;96464.28;5018021;28;24877;-76
2022/10/12 02:12:46;;;;;;;37.75;23.95;;;;;;;11.60;100.00;96456.66;5017533;28;24464;-76
2022/10/12 02:15:15;;;;;;;30.02;22.70;;;;;;;11.57;100.00;96451.66;5017292;28;24914;-76
2022/10/12 02:17:47;;;;;;;30.00;23.50;;;;;;;11.57;100.00;96451.66;5017486;28;24436;-76
2022/10/12 02:20:16;;;;;;;31.83;23.20;;;;;;;11.62;100.00;96451.41;5017831;28;24435;-76
2022/10/12 02:22:47;;;;;;;28.92;24.20;;;;;;;11.63;100.00;96442.69;5020785;28;24431;-76
2022/10/12 02:25:18;;;;;;;30.50;23.30;;;;;;;11.62;100.00;96452.22;5019196;28;24447;-76
2022/10/12 02:27:50;;;;;;;25.70;21.95;;;;;;;11.63;100.00;96447.88;5004050;28;24432;-76
2022/10/12 02:30:17;;;;;;;31.90;23.63;;;;;;;11.59;100.00;96442.03;5019072;28;24434;-76
2022/10/12 02:32:52;;;;;;;39.30;25.35;;;;;;;11.56;100.00;96441.34;5017047;28;24456;-76
2022/10/12 02:35:24;;;;;;;35.63;24.23;;;;;;;11.57;100.00;96441.28;5014813;28;24439;-76
2022/10/12 02:37:55;;;;;;;33.30;24.02;;;;;;;11.58;100.00;96439.53;5009366;28;24490;-76
2022/10/12 02:40:26;;;;;;;28.90;22.30;;;;;;;11.62;100.00;96441.84;5017860;28;24440;-76
2022/10/12 02:42:56;;;;;;;28.83;23.30;;;;;;;11.62;100.00;96438.44;5020592;28;24443;-76
2022/10/12 02:45:25;;;;;;;34.97;24.27;;;;;;;11.62;100.00;96435.84;5017100;28;24981;-76
2022/10/12 02:47:55;;;;;;;33.17;24.45;;;;;;;11.62;100.00;96441.84;5016711;28;24443;-75
2022/10/12 02:50:23;;;;;;;30.20;24.13;;;;;;;11.63;100.00;96442.69;5017698;28;24651;-75
2022/10/12 02:52:51;;;;;;;36.13;23.40;;;;;;;11.64;100.00;96439.16;5016647;28;24554;-77
2022/10/12 02:55:18;;;;;;;33.72;25.48;;;;;;;11.95;100.00;96442.66;5016402;28;24448;-75
2022/10/12 02:57:45;;;;;;;31.85;24.38;;;;;;;12.00;100.00;96441.47;5014822;28;24852;-75
2022/10/12 03:00:12;;;;;;;36.45;24.88;;;;;;;11.81;100.00;96440.81;5021188;28;24443;-75
2022/10/12 03:02:39;;;;;;;36.35;24.27;;;;;;;11.75;100.00;96436.78;5013549;28;24444;-75
2022/10/12 03:05:07;;;;;;;45.00;28.60;;;;;;;11.84;100.00;96432.91;5021602;28;24439;-75
2022/10/12 03:07:34;;;;;;;37.05;26.88;;;;;;;11.79;100.00;96433.13;5012811;28;24440;-75
2022/10/12 03:10:00;;;;;;;33.30;23.67;;;;;;;11.79;100.00;96435.72;5021764;28;24433;-75
2022/10/12 03:12:27;;;;;;;30.40;24.42;;;;;;;11.69;100.00;96434.56;5012212;28;24474;-76
2022/10/12 03:14:53;;;;;;;34.33;24.58;;;;;;;11.71;100.00;96435.31;5026037;28;24432;-75
2022/10/12 03:17:20;;;;;;;45.10;27.52;;;;;;;11.74;100.00;96442.91;5014432;28;24439;-78
2022/10/12 03:19:46;;;;;;;38.28;25.90;;;;;;;11.65;100.00;96433.06;5027258;28;24436;-75
2022/10/12 03:22:14;;;;;;;36.80;26.63;;;;;;;11.67;100.00;96428.63;5022984;28;24447;-76
2022/10/12 03:24:41;;;;;;;34.63;25.73;;;;;;;11.62;100.00;96430.66;5020568;28;24444;-77
2022/10/12 03:27:07;;;;;;;41.63;26.42;;;;;;;11.59;100.00;96434.25;5014242;28;24435;-76
2022/10/12 03:29:34;;;;;;;34.00;25.85;;;;;;;11.65;100.00;96425.28;5016849;28;24439;-77
2022/10/12 03:32:00;;;;;;;33.35;26.27;;;;;;;11.73;100.00;96425.69;5016006;28;24432;-77
2022/10/12 03:34:27;;;;;;;39.83;26.42;;;;;;;11.70;100.00;96418.06;5028403;28;24467;-77
2022/10/12 03:36:53;;;;;;;36.33;26.47;;;;;;;11.69;100.00;96425.97;5015112;28;24924;-76
2022/10/12 03:39:21;;;;;;;35.78;25.65;;;;;;;11.65;100.00;96430.47;5028890;28;24436;-76
2022/10/12 03:41:48;;;;;;;41.80;27.20;;;;;;;11.78;100.00;96426.25;5023030;28;24443;-76
2022/10/12 03:44:14;;;;;;;34.30;26.67;;;;;;;11.77;100.00;96422.00;5027671;28;24443;-77
2022/10/12 03:46:41;;;;;;;43.95;26.40;;;;;;;11.83;100.00;96433.78;5013068;28;24443;-76
2022/10/12 03:49:07;;;;;;;42.38;24.95;;;;;;;11.75;100.00;96430.78;5019714;28;24455;-78
2022/10/12 03:51:34;;;;;;;37.83;28.00;;;;;;;11.82;100.00;96442.47;5024542;28;24439;-77
2022/10/12 03:54:00;;;;;;;42.13;26.20;;;;;;;11.73;100.00;96433.47;5024224;28;24526;-76
2022/10/12 03:56:28;;;;;;;32.08;24.33;;;;;;;11.74;100.00;96429.94;5014978;28;24440;-76
2022/10/12 03:58:55;;;;;;;39.42;27.92;;;;;;;11.84;100.00;96431.13;5018840;28;24972;-76
2022/10/12 04:01:21;;;;;;;35.90;25.25;;;;;;;11.77;100.00;96431.53;5021609;28;24985;-77
2022/10/12 04:03:48;;;;;;;40.20;27.08;;;;;;;11.79;100.00;96437.47;5023313;28;24980;-75
2022/10/12 04:06:14;;;;;;;39.08;26.10;;;;;;;11.72;100.00;96431.81;5031466;28;24416;-74
2022/10/12 04:08:41;;;;;;;37.17;26.70;;;;;;;11.81;100.00;96439.06;5031773;28;25000;-75
2022/10/12 04:11:08;;;;;;;39.28;26.48;;;;;;;11.79;100.00;96437.47;5031507;28;24432;-75
2022/10/12 04:13:36;;;;;;;33.85;24.83;;;;;;;11.73;100.00;96432.63;5031867;28;24452;-74
2022/10/12 04:16:02;;;;;;;40.90;26.20;;;;;;;11.75;100.00;96438.56;5030710;28;24430;-74
2022/10/12 04:18:29;;;;;;;40.45;27.98;;;;;;;11.86;100.00;96433.63;5022610;28;24479;-74
2022/10/12 04:20:56;;;;;;;40.17;28.23;;;;;;;11.74;100.00;96432.53;5011014;28;24432;-75
2022/10/12 04:23:22;;;;;;;37.63;26.53;;;;;;;11.71;100.00;96431.88;5011630;28;24805;-75
2022/10/12 04:25:49;;;;;;;42.38;26.83;;;;;;;11.76;100.00;96433.31;5009934;28;24417;-74
2022/10/12 04:28:15;;;;;;;43.63;28.15;;;;;;;11.84;100.00;96436.31;5014447;28;24432;-75
2022/10/12 04:30:44;;;;;;;40.60;27.73;;;;;;;11.76;100.00;96432.47;5020074;28;24439;-75
2022/10/12 04:33:11;;;;;;;33.47;23.90;;;;;;;11.77;100.00;96434.97;5015741;28;24854;-75
2022/10/12 04:35:37;;;;;;;38.13;28.20;;;;;;;11.82;100.00;96432.09;5018615;28;24432;-74
2022/10/12 04:38:04;;;;;;;35.78;27.30;;;;;;;11.90;100.00;96439.47;5022812;28;24439;-75
2022/10/12 04:40:31;;;;;;;41.88;26.90;;;;;;;11.89;100.00;96437.81;5013946;28;24997;-75
2022/10/12 04:42:57;;;;;;;33.33;24.87;;;;;;;11.78;100.00;96435.78;5017450;28;24518;-74
2022/10/12 04:45:24;;;;;;;28.55;23.60;;;;;;;11.76;100.00;96443.69;5016708;28;24499;-76
2022/10/12 04:47:52;;;;;;;32.38;24.98;;;;;;;11.71;100.00;96440.50;5018409;28;24431;-76
2022/10/12 04:50:18;;;;;;;34.33;24.20;;;;;;;11.71;100.00;96443.09;5016718;28;24794;-76
2022/10/12 04:52:45;;;;;;;30.47;24.83;;;;;;;11.69;100.00;96444.94;5016539;28;24977;-76
2022/10/12 04:55:11;;;;;;;33.23;25.97;;;;;;;11.69;100.00;96455.34;5019989;28;25073;-77
2022/10/12 04:57:38;;;;;;;33.22;25.02;;;;;;;11.69;100.00;96450.13;5021359;28;24782;-76
2022/10/12 05:00:06;;;;;;;35.83;23.33;;;;;;;11.71;100.00;96445.69;5023511;28;24428;-78
2022/10/12 05:02:32;;;;;;;29.57;22.67;;;;;;;11.76;100.00;96445.44;5006661;28;24436;-76
2022/10/12 05:05:00;;;;;;;33.40;23.02;;;;;;;11.75;100.00;96444.59;5007719;28;24437;-76
2022/10/12 05:07:27;;;;;;;31.63;22.65;;;;;;;11.76;100.00;96448.03;5012870;28;24803;-77
2022/10/12 05:09:53;;;;;;;34.60;24.43;;;;;;;11.74;100.00;96448.09;5014703;28;24830;-77
2022/10/12 05:12:20;;;;;;;36.60;23.52;;;;;;;11.74;100.00;96448.09;5019484;28;24698;-77
2022/10/12 05:14:46;;;;;;;32.15;22.85;;;;;;;11.70;100.00;96454.41;5018038;28;24456;-77
2022/10/12 05:17:13;;;;;;;38.35;21.85;;;;;;;11.71;100.00;96447.44;4998604;28;24536;-77
2022/10/12 05:19:39;;;;;;;30.75;21.98;;;;;;;11.71;100.00;96444.84;5006510;28;24793;-76
2022/10/12 05:22:07;;;;;;;31.23;22.05;;;;;;;11.66;100.00;96442.53;5010460;28;24428;-76
2022/10/12 05:24:34;;;;;;;29.17;21.25;;;;;;;11.70;100.00;96444.03;5025961;28;24435;-75
2022/10/12 05:27:01;;;;;;;33.15;21.20;;;;;;;11.74;100.00;96455.06;5015995;28;24439;-78
2022/10/12 05:29:28;;;;;;;32.92;22.17;;;;;;;11.71;100.00;96448.28;5024334;28;24454;-76
2022/10/12 05:31:54;;;;;;;30.35;21.85;;;;;;;11.73;100.00;96449.03;5019937;28;24997;-77
2022/10/12 05:34:21;;;;;;;30.07;21.90;;;;;;;11.74;100.00;96442.09;5025496;28;24837;-75
2022/10/12 05:36:47;;;;;;;31.02;21.55;;;;;;;11.71;100.00;96450.88;5007200;28;24443;-75
2022/10/12 05:39:15;;;;;;;30.65;22.15;;;;;;;11.69;100.00;96450.13;5027227;28;24979;-77
2022/10/12 05:41:41;;;;;;;36.13;21.35;;;;;;;11.69;100.00;96449.31;5020779;28;24436;-77
2022/10/12 05:44:08;;;;;;;27.75;21.73;;;;;;;11.67;100.00;96451.13;5024986;28;24443;-76
2022/10/12 05:46:34;;;;;;;25.50;20.02;;;;;;;11.67;100.00;96448.53;5012591;28;24443;-78
2022/10/12 05:49:01;;;;;;;28.95;20.27;;;;;;;11.68;100.00;96451.06;5021965;28;24992;-76
2022/10/12 05:51:28;;;;;;;32.58;21.50;;;;;;;11.70;100.00;96448.38;5021365;28;24451;-77
2022/10/12 05:53:54;;;;;;;26.92;20.90;;;;;;;11.68;100.00;96456.25;5009445;28;24460;-74
2022/10/12 05:56:22;;;;;;;26.30;19.60;;;;;;;11.71;100.00;96455.22;5022216;28;25004;-74
2022/10/12 05:58:48;;;;;;;23.77;20.08;;;;;;;11.74;100.00;96453.31;5009326;28;24440;-74
2022/10/12 06:01:15;;;;;;;32.85;22.13;;;;;;;11.69;100.00;96449.31;5017962;28;24786;-77
2022/10/12 06:03:41;;;;;;;25.83;21.87;;;;;;;11.67;100.00;96456.31;5014565;28;24492;-77
2022/10/12 06:06:08;;;;;;;28.88;22.90;;;;;;;11.67;100.00;96457.16;5022628;28;24431;-77
2022/10/12 06:08:35;;;;;;;32.22;24.50;;;;;;;11.59;100.00;96455.00;5020732;28;24464;-76
2022/10/12 06:11:01;;;;;;;31.58;24.08;;;;;;;11.64;100.00;96454.72;5021242;28;24439;-77
2022/10/12 06:13:29;;;;;;;32.35;23.77;;;;;;;11.61;100.00;96453.16;5018718;28;24825;-77
2022/10/12 06:15:55;;;;;;;35.53;25.15;;;;;;;11.65;100.00;96458.19;5015560;28;24616;-79
2022/10/12 06:18:22;;;;;;;33.53;25.20;;;;;;;11.61;100.00;96458.34;5018710;28;24436;-76
2022/10/12 06:20:50;;;;;;;33.17;25.65;;;;;;;11.63;100.00;96459.09;5017424;28;24444;-76
2022/10/12 06:23:17;;;;;;;37.95;26.48;;;;;;;11.67;100.00;96454.56;5016921;28;24535;-75
2022/10/12 06:25:45;;;;;;;40.90;27.83;;;;;;;11.62;100.00;96459.19;5022077;28;24443;-76
2022/10/12 06:28:12;;;;;;;37.13;26.27;;;;;;;11.67;100.00;96464.94;5016048;28;24536;-75
2022/10/12 06:30:40;;;;;;;36.90;25.88;;;;;;;11.74;100.00;96463.69;5020287;28;24437;-76
2022/10/12 06:33:06;;;;;;;33.38;26.58;;;;;;;11.77;100.00;96465.28;5021092;28;24432;-75
2022/10/12 06:35:33;;;;;;;30.08;25.27;;;;;;;11.80;100.00;96463.34;5020665;28;24503;-78
2022/10/12 06:38:00;;;;;;;27.27;23.13;;;;;;;11.84;100.00;96462.28;5022739;28;24443;-77
2022/10/12 06:40:26;;;;;;;31.08;23.42;;;;;;;11.90;100.00;96470.63;5018569;28;24445;-75
2022/10/12 06:42:53;;;;;;;33.10;26.20;;;;;;;11.88;100.00;96468.13;5009478;28;24483;-76
2022/10/12 06:45:19;;;;;;;35.22;26.70;;;;;;;11.84;100.00;96469.22;5016350;28;24432;-76
2022/10/12 06:47:47;;;;;;;32.90;24.90;;;;;;;11.89;100.00;96466.38;5009765;28;24436;-75
2022/10/12 06:50:14;;;;;;;36.20;26.42;;;;;;;11.84;100.00;96466.63;5025359;28;24440;-74
2022/10/12 06:52:42;;;;;;;36.20;24.77;;;;;;;11.88;100.00;96468.13;5021285;28;24444;-74
2022/10/12 06:55:10;;;;;;;33.03;24.05;;;;;;;11.93;100.00;96470.47;5025403;28;24462;-74
2022/10/12 06:57:37;;;;;;;34.70;25.97;;;;;;;11.86;100.00;96470.81;5019344;28;24433;-74
2022/10/12 07:00:05;;;;;;;33.00;24.43;;;;;;;11.88;100.00;96475.09;5015255;28;24432;-76
2022/10/12 07:02:31;;;;;;;34.33;23.27;;;;;;;11.92;100.00;96473.97;5018688;28;24428;-76
2022/10/12 07:05:00;;;;;;;31.63;22.45;;;;;;;11.97;100.00;96474.53;5019296;28;24428;-76
2022/10/12 07:07:26;;;;;;;27.65;21.08;;;;;;;12.01;100.00;96474.28;5022295;28;24436;-74
2022/10/12 07:09:53;;;;;;;33.43;22.97;;;;;;;12.02;100.00;96469.94;5024865;28;24790;-74
2022/10/12 07:12:19;;;;;;;27.17;21.38;;;;;;;12.03;100.00;96469.84;5026671;28;24433;-74
2022/10/12 07:14:46;;;;;;;34.83;21.60;;;;;;;12.07;100.00;96473.09;5016966;28;24459;-75
2022/10/12 07:17:12;;;;;;;33.55;21.27;;;;;;;12.07;100.00;96467.91;5024186;28;24432;-75
2022/10/12 07:19:39;;;;;;;27.58;20.58;;;;;;;12.10;100.00;96478.97;5015768;28;24444;-74
2022/10/12 07:22:07;;;;;;;31.13;21.08;;;;;;;12.11;100.00;96475.44;5024413;28;24802;-75
2022/10/12 07:24:35;;;;;;;26.23;21.45;;;;;;;12.08;100.00;96479.97;5022753;28;24435;-75
2022/10/12 07:27:02;;;;;;;26.60;19.48;;;;;;;12.13;100.00;96472.75;5019569;28;24440;-74
2022/10/12 07:29:30;;;;;;;29.63;20.38;;;;;;;12.21;100.00;96474.91;5029376;28;24443;-75
2022/10/12 07:31:57;;;;;;;22.70;17.85;;;;;;;12.10;100.00;96468.56;5021611;28;24972;-75
2022/10/12 07:34:23;;;;;;;27.80;18.30;;;;;;;12.24;100.00;96474.75;5021028;28;25043;-74
2022/10/12 07:36:49;;;;;;;26.92;17.88;;;;;;;12.24;100.00;96470.38;5030951;28;24446;-74
2022/10/12 07:39:17;;;;;;;23.13;18.30;;;;;;;12.20;100.00;96475.81;5017643;28;24516;-74
2022/10/12 07:41:44;;;;;;;28.20;18.02;;;;;;;12.24;100.00;96472.97;5026958;28;24460;-75
2022/10/12 07:44:11;;;;;;;28.10;17.35;;;;;;;12.25;100.00;96472.03;5028400;28;24789;-78
2022/10/12 07:46:38;;;;;;;25.45;17.05;;;;;;;12.33;100.00;96474.19;5032914;28;24510;-75
2022/10/12 07:49:05;;;;;;;29.67;18.35;;;;;;;12.40;100.00;96474.69;5033066;28;24439;-77
2022/10/12 07:51:31;;;;;;;30.60;17.48;;;;;;;12.31;100.00;96481.22;5033047;28;24432;-75
2022/10/12 07:53:59;;;;;;;27.73;17.65;;;;;;;12.30;100.00;96480.38;5013899;28;24471;-75
2022/10/12 07:56:27;;;;;;;34.20;19.58;;;;;;;12.21;100.00;96480.09;5018849;28;24511;-75
2022/10/12 07:58:55;;;;;;;24.60;17.30;;;;;;;12.25;100.00;96482.44;5013327;28;24431;-77
2022/10/12 08:01:23;;;;;;;26.25;18.27;;;;;;;12.24;100.00;96485.13;5013313;28;24436;-75
2022/10/12 08:03:50;;;;;;;26.52;18.30;;;;;;;12.19;100.00;96487.97;5031281;28;24436;-75
2022/10/12 08:06:19;;;;;;;25.17;16.40;;;;;;;12.28;100.00;96482.25;5017112;28;24786;-75
2022/10/12 08:08:46;;;;;;;26.92;17.33;;;;;;;12.30;100.00;96488.19;5013003;28;24423;-74
2022/10/12 08:11:13;;;;;;;22.98;16.52;;;;;;;12.37;100.00;96487.84;5027680;28;24440;-76
2022/10/12 08:13:41;;;;;;;28.88;17.52;;;;;;;12.25;100.00;96486.78;5014276;28;24992;-75
2022/10/12 08:16:11;;;;;;;27.63;18.65;;;;;;;12.28;100.00;96486.63;5020668;28;24976;-75
2022/10/12 08:18:38;;;;;;;31.63;16.83;;;;;;;12.27;100.00;96488.38;5012635;28;24954;-75
2022/10/12 08:21:05;;;;;;;29.73;17.27;;;;;;;12.31;100.00;96495.06;5013340;28;24447;-75
2022/10/12 08:23:32;;;;;;;30.08;17.60;;;;;;;12.25;100.00;96492.81;5021207;28;25000;-76
2022/10/12 08:25:58;;;;;;;24.48;16.08;;;;;;;12.20;100.00;96505.25;5022550;28;24793;-74
2022/10/12 08:28:25;;;;;;;25.45;17.10;;;;;;;12.22;100.00;96503.38;5022140;28;24436;-75
2022/10/12 08:30:53;;;;;;;24.30;15.85;;;;;;;12.27;100.00;96500.50;5022467;28;24996;-76
2022/10/12 08:33:20;;;;;;;28.50;16.40;;;;;;;12.31;100.00;96497.66;5012887;28;24451;-75
2022/10/12 08:35:47;;;;;;;22.77;15.13;;;;;;;12.34;100.00;96497.47;5012458;28;24459;-76
2022/10/12 08:38:14;;;;;;;23.10;14.52;;;;;;;12.40;100.00;96493.69;5018232;28;24428;-76
2022/10/12 08:40:47;;;;;;;24.10;15.15;;;;;;;12.46;100.00;96498.53;5021067;28;24443;-77
2022/10/12 08:43:25;;;;;;;19.48;14.38;;;;;;;12.49;100.00;96510.50;5020829;28;24443;-75
2022/10/12 08:45:55;;;;;;;26.77;14.83;;;;;;;12.45;100.00;96509.84;5016373;28;25011;-75
2022/10/12 08:48:26;;;;;;;24.35;14.52;;;;;;;12.45;100.00;96494.25;5026331;28;24528;-76
2022/10/12 08:50:56;;;;;;;20.88;14.77;;;;;;;12.49;100.00;96500.09;5012139;28;24965;-78
2022/10/12 08:53:28;;;;;;;26.27;15.38;;;;;;;12.62;100.00;96490.66;5028669;28;24442;-77
2022/10/12 08:55:56;;;;;;;28.70;16.17;;;;;;;12.52;100.00;96489.53;5015550;28;24455;-77
2022/10/12 08:58:26;;;;;;;27.33;15.18;;;;;;;12.55;100.00;96489.34;5018456;28;24490;-76
2022/10/12 09:00:57;;;;;;;23.88;15.77;;;;;;;12.66;100.00;96488.72;5019389;28;24436;-76
2022/10/12 09:03:36;;;;;;;26.50;15.27;;;;;;;12.69;100.00;96491.16;5017658;28;24451;-76
2022/10/12 09:06:11;;;;;;;21.88;14.35;;;;;;;12.71;100.00;96490.09;5020507;28;24436;-76
2022/10/12 09:08:50;;;;;;;26.33;16.13;;;;;;;12.67;100.00;96490.38;5025656;28;24442;-76
2022/10/12 09:11:28;;;;;;;26.98;14.93;;;;;;;12.73;100.00;96495.22;5015360;28;24434;-75
2022/10/12 09:14:05;;;;;;;25.40;15.98;;;;;;;12.66;100.00;96489.56;5014382;28;25195;-76
2022/10/12 09:16:37;;;;;;;25.35;15.43;;;;;;;12.63;100.00;96492.31;5021194;28;24785;-76
2022/10/12 09:19:09;;;;;;;25.75;15.07;;;;;;;12.70;100.00;96498.84;5028002;28;24790;-76
2022/10/12 09:21:39;;;;;;;22.73;14.60;;;;;;;12.79;100.00;96487.91;5013196;28;24428;-75
2022/10/12 09:24:15;;;;;;;20.38;13.30;;;;;;;12.84;100.00;96498.03;5013577;28;24442;-75
2022/10/12 09:26:44;;;;;;;23.35;15.05;;;;;;;12.78;100.00;96498.38;5027387;28;24436;-75
2022/10/12 09:29:23;;;;;;;25.00;14.63;;;;;;;12.76;100.00;96505.44;5019385;28;24443;-77
2022/10/12 09:32:14;;;;;;;23.73;14.80;;;;;;;12.82;100.00;96512.84;5012273;28;24424;-75
2022/10/12 09:34:41;;;;;;;24.63;15.23;;;;;;;12.86;100.00;96508.31;5020705;28;24448;-75
2022/10/12 09:37:17;;;;;;;24.53;15.30;;;;;;;12.85;100.00;96510.06;5023227;28;25202;-75
2022/10/12 09:39:44;;;;;;;20.87;12.83;;;;;;;12.90;100.00;96517.59;5023775;28;24435;-75
2022/10/12 09:42:11;;;;;;;22.40;13.15;;;;;;;12.92;100.00;96524.38;5022866;28;24437;-76
2022/10/12 09:44:40;;;;;;;26.05;13.77;;;;;;;12.97;100.00;96514.53;5012067;28;24973;-76
2022/10/12 09:47:25;;;;;;;19.10;13.23;;;;;;;13.10;100.00;96513.81;5018105;28;24432;-76
2022/10/12 09:49:56;;;;;;;22.75;13.38;;;;;;;13.10;100.00;96512.03;5005714;28;24821;-77
2022/10/12 09:52:28;;;;;;;17.23;11.80;;;;;;;13.19;100.00;96510.63;5020669;28;24524;-76
2022/10/12 09:54:59;;;;;;;20.67;13.23;;;;;;;13.13;100.00;96511.03;5021441;28;25168;-75
2022/10/12 09:57:28;;;;;;;16.02;11.35;;;;;;;13.21;100.00;96501.81;5025037;28;24980;-76
2022/10/12 09:59:55;;;;;;;14.68;11.57;;;;;;;13.25;100.00;96510.28;5022045;28;24443;-76
2022/10/12 10:02:24;;;;;;;20.02;12.25;;;;;;;13.19;100.00;96506.25;5025054;28;24451;-75
2022/10/12 10:04:52;;;;;;;19.13;11.67;;;;;;;13.24;100.00;96501.66;5007642;28;24984;-77
2022/10/12 10:07:26;;;;;;;21.90;11.60;;;;;;;13.26;100.00;96504.97;5021512;28;24443;-76
2022/10/12 10:10:21;;;;;;;23.52;13.40;;;;;;;13.28;100.00;96497.09;5008635;28;24489;-76
2022/10/12 10:12:50;;;;;;;22.50;12.82;;;;;;;13.38;100.00;96497.34;4978585;28;24463;-76
2022/10/12 10:15:23;;;;;;;15.70;11.80;;;;;;;13.48;100.00;96501.06;5017135;28;24470;-76
2022/10/12 10:17:53;;;;;;;21.17;12.05;;;;;;;13.46;100.00;96508.09;5010161;28;24424;-76
2022/10/12 10:20:43;;;;;;;24.38;12.70;;;;;;;13.45;100.00;96502.06;5013633;28;24479;-76
2022/10/12 10:23:24;;;;;;;18.73;11.75;;;;;;;13.60;100.00;96500.28;5013997;28;24973;-76
2022/10/12 10:25:56;;;;;;;22.30;12.47;;;;;;;13.71;100.00;96497.81;5019468;28;24467;-77
2022/10/12 10:28:24;;;;;;;22.83;12.87;;;;;;;13.68;100.00;96500.66;5021532;28;24446;-76
2022/10/12 10:31:01;;;;;;;20.50;11.18;;;;;;;13.89;100.00;96500.19;5013565;28;24431;-76
2022/10/12 10:33:30;;;;;;;31.23;12.40;;;;;;;13.70;100.00;96497.94;5013016;28;24444;-76
2022/10/12 10:36:03;;;;;;;18.50;12.15;;;;;;;13.72;100.00;96506.47;5019954;28;24454;-76
2022/10/12 10:38:32;;;;;;;19.58;12.05;;;;;;;13.95;100.00;96500.66;5012776;28;24429;-76
2022/10/12 10:41:02;;;;;;;23.42;11.65;;;;;;;13.96;100.00;96501.47;5020993;28;24432;-76
2022/10/12 10:43:31;;;;;;;19.33;10.80;;;;;;;14.11;100.00;96499.66;5020281;28;24468;-77
2022/10/12 10:46:00;;;;;;;20.60;11.70;;;;;;;14.22;100.00;96499.78;5020703;28;24436;-76
2022/10/12 10:48:34;;;;;;;22.02;11.85;;;;;;;14.18;100.00;96506.97;5020434;28;25114;-76
2022/10/12 10:51:02;;;;;;;16.35;10.52;;;;;;;14.26;100.00;96507.28;5015031;28;24436;-76
2022/10/12 10:53:34;;;;;;;19.47;11.27;;;;;;;14.71;100.00;96499.13;5013230;28;24443;-76
2022/10/12 10:56:05;;;;;;;20.23;10.40;;;;;;;14.55;100.00;96504.56;5022588;28;24506;-76
2022/10/12 10:58:35;;;;;;;20.02;11.60;;;;;;;14.46;100.00;96500.78;5019358;28;24436;-77
2022/10/12 11:01:10;;;;;;;20.75;11.23;;;;;;;14.48;100.00;96503.25;5020575;28;24432;-77
2022/10/12 11:03:48;;;;;;;18.95;11.60;;;;;;;14.39;100.00;96501.28;5024865;28;24439;-77
2022/10/12 11:06:22;;;;;;;23.27;10.45;;;;;;;14.38;100.00;96500.41;5013423;28;24500;-79
2022/10/12 11:08:54;;;;;;;24.70;10.80;;;;;;;14.35;100.00;96499.78;5011768;28;24400;-78
2022/10/12 11:11:27;;;;;;;17.83;11.15;;;;;;;14.47;100.00;96502.44;5018400;28;24439;-78
2022/10/12 11:13:59;;;;;;;24.08;11.23;;;;;;;14.31;100.00;96501.75;5018099;28;24432;-79
2022/10/12 11:16:34;;;;;;;23.17;11.57;;;;;;;14.21;100.00;96503.31;5023482;28;24495;-78
2022/10/12 11:19:06;;;;;;;18.15;11.50;;;;;;;14.21;100.00;96498.94;5030548;28;24515;-78